createdAt,value
2023-03-29T00:00:32.882Z,68.42
2023-03-29T00:03:03.425Z,68.45
2023-03-29T00:05:33.923Z,67.60
2023-03-29T00:08:04.254Z,68.11
2023-03-29T00:10:33.628Z,67.69
2023-03-29T00:13:01.543Z,66.72
2023-03-29T00:15:29.581Z,66.23
2023-03-29T00:17:57.327Z,67.13
2023-03-29T00:20:26.433Z,67.91
2023-03-29T00:22:54.091Z,67.39
2023-03-29T00:25:21.782Z,68.66
2023-03-29T00:27:49.636Z,68.40
2023-03-29T00:30:17.512Z,69.01
2023-03-29T00:32:45.962Z,69.00
2023-03-29T00:35:13.649Z,67.17
2023-03-29T00:37:42.659Z,67.13
2023-03-29T00:40:12.739Z,68.76
2023-03-29T00:42:40.538Z,69.22
2023-03-29T00:45:20.439Z,69.23
2023-03-29T00:47:51.420Z,68.98
2023-03-29T00:50:25.729Z,70.19
2023-03-29T00:53:00.866Z,69.05
2023-03-29T00:55:32.868Z,70.41
2023-03-29T00:58:02.675Z,70.50
2023-03-29T01:00:34.386Z,71.14
2023-03-29T01:03:04.722Z,71.30
2023-03-29T01:05:37.635Z,71.75
2023-03-29T01:08:11.124Z,72.84
2023-03-29T01:10:44.964Z,71.63
2023-03-29T01:13:18.714Z,72.08
2023-03-29T01:15:47.888Z,72.65
2023-03-29T01:18:15.801Z,73.30
2023-03-29T01:21:04.909Z,73.24
2023-03-29T01:23:52.067Z,73.20
2023-03-29T01:26:27.091Z,73.01
2023-03-29T01:29:02.042Z,73.06
2023-03-29T01:31:33.423Z,73.00
2023-03-29T01:34:05.874Z,72.24
2023-03-29T01:36:38.854Z,72.09
2023-03-29T01:39:07.957Z,72.09
2023-03-29T01:41:42.669Z,72.71
2023-03-29T01:44:16.509Z,72.61
2023-03-29T01:46:47.658Z,71.64
2023-03-29T01:49:22.849Z,71.78
2023-03-29T01:51:54.564Z,71.59
2023-03-29T01:54:27.181Z,71.88
2023-03-29T01:56:57.026Z,71.93
2023-03-29T01:59:28.858Z,71.64
2023-03-29T02:02:00.352Z,71.11
2023-03-29T02:04:34.523Z,70.33
2023-03-29T02:07:05.136Z,71.51
2023-03-29T02:09:34.998Z,71.96
2023-03-29T02:12:04.517Z,70.97
2023-03-29T02:14:35.145Z,71.01
2023-03-29T02:17:16.562Z,70.36
2023-03-29T02:19:46.073Z,70.20
2023-03-29T02:22:16.523Z,69.67
2023-03-29T02:24:47.066Z,70.32
2023-03-29T02:27:14.998Z,69.62
2023-03-29T02:29:46.795Z,70.34
2023-03-29T02:32:20.610Z,70.57
2023-03-29T02:34:56.352Z,70.29
2023-03-29T02:37:30.111Z,70.33
2023-03-29T02:40:00.130Z,70.35
2023-03-29T02:42:29.712Z,70.01
2023-03-29T02:45:01.261Z,69.80
2023-03-29T02:47:33.185Z,70.04
2023-03-29T02:50:01.349Z,70.20
2023-03-29T02:52:35.240Z,70.59
2023-03-29T02:55:06.286Z,70.56
2023-03-29T02:57:35.603Z,70.76
2023-03-29T03:00:06.911Z,71.12
2023-03-29T03:02:35.506Z,70.17
2023-03-29T03:05:03.699Z,70.82
2023-03-29T03:07:31.415Z,70.96
2023-03-29T03:09:59.082Z,71.55
2023-03-29T03:12:27.165Z,71.54
2023-03-29T03:14:54.857Z,71.88
2023-03-29T03:17:24.612Z,71.64
2023-03-29T03:19:53.142Z,70.94
2023-03-29T03:22:20.868Z,71.37
2023-03-29T03:24:49.278Z,70.57
2023-03-29T03:27:17.006Z,71.88
2023-03-29T03:29:44.712Z,70.85
2023-03-29T03:32:12.439Z,71.98
2023-03-29T03:34:41.461Z,72.01
2023-03-29T03:37:11.908Z,71.23
2023-03-29T03:39:39.630Z,72.62
2023-03-29T03:42:08.339Z,72.04
2023-03-29T03:44:36.505Z,71.62
2023-03-29T03:47:05.681Z,72.44
2023-03-29T03:49:33.420Z,72.49
2023-03-29T03:52:02.590Z,73.91
2023-03-29T03:54:30.323Z,73.12
2023-03-29T03:56:58.110Z,72.98
2023-03-29T03:59:26.581Z,72.63
2023-03-29T04:01:54.339Z,73.98
2023-03-29T04:04:23.293Z,73.79
2023-03-29T04:06:51.238Z,74.08
2023-03-29T04:09:20.682Z,73.83
2023-03-29T04:11:49.633Z,74.46
2023-03-29T04:14:17.300Z,73.57
2023-03-29T04:16:44.932Z,73.36
2023-03-29T04:19:12.928Z,73.75
2023-03-29T04:21:40.749Z,73.77
2023-03-29T04:24:08.929Z,74.34
2023-03-29T04:26:37.975Z,74.88
2023-03-29T04:29:05.753Z,75.10
2023-03-29T04:31:33.655Z,74.55
2023-03-29T04:34:01.591Z,74.34
2023-03-29T04:36:29.258Z,73.04
2023-03-29T04:38:57.001Z,73.95
2023-03-29T04:41:24.936Z,73.52
2023-03-29T04:43:55.994Z,73.11
2023-03-29T04:46:25.489Z,73.23
2023-03-29T04:48:53.870Z,73.78
2023-03-29T04:51:22.431Z,74.64
2023-03-29T04:53:50.967Z,73.21
2023-03-29T04:56:19.049Z,73.85
2023-03-29T04:58:46.759Z,74.46
2023-03-29T05:01:15.829Z,76.52
2023-03-29T05:03:43.779Z,75.37
2023-03-29T05:06:12.147Z,76.46
2023-03-29T05:08:41.249Z,76.02
2023-03-29T05:11:10.270Z,74.98
2023-03-29T05:13:38.960Z,75.56
2023-03-29T05:16:07.894Z,77.05
2023-03-29T05:18:37.089Z,76.47
2023-03-29T05:21:06.355Z,77.76
2023-03-29T05:23:34.507Z,77.32
2023-03-29T05:26:02.641Z,76.41
2023-03-29T05:28:30.468Z,78.13
2023-03-29T05:31:02.545Z,78.84
2023-03-29T05:33:30.863Z,78.44
2023-03-29T05:36:04.504Z,77.79
2023-03-29T05:38:32.805Z,79.21
2023-03-29T05:41:01.790Z,79.07
2023-03-29T05:43:30.066Z,77.66
2023-03-29T05:45:58.300Z,78.51
2023-03-29T05:48:27.038Z,79.14
2023-03-29T05:50:56.299Z,78.65
2023-03-29T05:53:27.097Z,77.72
2023-03-29T05:55:55.356Z,77.88
2023-03-29T05:58:26.634Z,80.23
2023-03-29T06:00:54.427Z,80.02
2023-03-29T06:03:25.458Z,77.83
2023-03-29T06:05:58.616Z,79.23
2023-03-29T06:08:28.589Z,76.94
2023-03-29T06:11:02.505Z,78.15
2023-03-29T06:13:33.506Z,77.26
2023-03-29T06:16:02.117Z,77.58
2023-03-29T06:18:30.022Z,78.03
2023-03-29T06:20:57.737Z,78.44
2023-03-29T06:23:27.041Z,78.33
2023-03-29T06:25:55.364Z,78.34
2023-03-29T06:28:23.969Z,78.81
2023-03-29T06:30:53.459Z,79.34
2023-03-29T06:33:21.534Z,80.78
2023-03-29T06:35:50.507Z,80.39
2023-03-29T06:38:18.261Z,79.01
2023-03-29T06:40:48.203Z,76.55
2023-03-29T06:43:15.850Z,78.39
2023-03-29T06:45:43.692Z,79.58
2023-03-29T06:48:12.278Z,79.68
2023-03-29T06:50:40.017Z,79.04
2023-03-29T06:53:07.716Z,79.19
2023-03-29T06:55:36.038Z,79.70
2023-03-29T06:58:05.227Z,78.02
2023-03-29T07:00:35.764Z,79.55
2023-03-29T07:03:09.792Z,78.56
2023-03-29T07:05:40.814Z,77.40
2023-03-29T07:08:16.387Z,78.49
2023-03-29T07:10:47.395Z,78.74
2023-03-29T07:13:17.272Z,79.66
2023-03-29T07:15:45.830Z,78.26
2023-03-29T07:18:13.600Z,77.15
2023-03-29T07:20:42.483Z,76.61
2023-03-29T07:23:11.398Z,74.91
2023-03-29T07:25:39.602Z,76.55
2023-03-29T07:28:07.527Z,76.88
2023-03-29T07:30:37.197Z,76.70
2023-03-29T07:33:05.318Z,76.83
2023-03-29T07:35:33.224Z,76.34
2023-03-29T07:38:01.070Z,77.02
2023-03-29T07:40:29.202Z,77.83
2023-03-29T07:42:57.598Z,76.45
2023-03-29T07:45:29.111Z,74.75
2023-03-29T07:48:00.020Z,75.28
2023-03-29T07:50:28.730Z,75.97
2023-03-29T07:52:56.855Z,77.63
2023-03-29T07:55:24.759Z,77.47
2023-03-29T07:57:53.537Z,74.93
2023-03-29T08:00:22.383Z,73.44
2023-03-29T08:02:52.316Z,73.32
2023-03-29T08:05:37.739Z,73.94
2023-03-29T08:08:09.697Z,74.16
2023-03-29T08:10:39.367Z,74.23
2023-03-29T08:13:09.163Z,73.31
2023-03-29T08:15:39.016Z,73.04
2023-03-29T08:18:07.282Z,73.04
2023-03-29T08:20:36.430Z,71.69
2023-03-29T08:23:04.196Z,73.49
2023-03-29T08:25:31.887Z,73.43
2023-03-29T08:27:59.949Z,72.56
2023-03-29T08:30:28.187Z,72.21
2023-03-29T08:32:56.446Z,72.11
2023-03-29T08:35:24.185Z,71.42
2023-03-29T08:37:53.189Z,71.75
2023-03-29T08:40:26.699Z,72.06
2023-03-29T08:43:08.214Z,72.35
2023-03-29T08:45:45.116Z,71.78
2023-03-29T08:48:23.767Z,74.10
2023-03-29T08:50:54.959Z,72.18
2023-03-29T08:53:30.634Z,72.48
2023-03-29T08:56:02.640Z,74.45
2023-03-29T08:58:35.246Z,74.17
2023-03-29T09:01:06.234Z,72.63
2023-03-29T09:03:39.136Z,71.87
2023-03-29T09:06:09.625Z,71.15
2023-03-29T09:08:42.083Z,70.69
2023-03-29T09:11:28.968Z,71.60
2023-03-29T09:14:05.909Z,69.47
2023-03-29T09:16:41.837Z,70.72
2023-03-29T09:19:20.939Z,69.18
2023-03-29T09:21:57.936Z,69.82
2023-03-29T09:24:39.863Z,70.77
2023-03-29T09:27:11.364Z,72.14
2023-03-29T09:29:53.510Z,71.85
2023-03-29T09:32:23.810Z,70.91
2023-03-29T09:35:01.909Z,71.85
2023-03-29T09:37:34.196Z,70.31
2023-03-29T09:40:12.084Z,70.19
2023-03-29T09:42:40.849Z,69.78
2023-03-29T09:45:09.848Z,67.40
2023-03-29T09:47:41.235Z,68.15
2023-03-29T09:50:27.799Z,69.36
2023-03-29T09:52:59.182Z,69.45
2023-03-29T09:55:31.138Z,68.10
2023-03-29T09:58:01.777Z,66.56
2023-03-29T10:00:30.082Z,68.03
2023-03-29T10:03:00.244Z,68.37
2023-03-29T10:05:37.756Z,68.85
2023-03-29T10:08:19.869Z,70.80
2023-03-29T10:10:49.606Z,68.08
2023-03-29T10:13:22.810Z,70.34
2023-03-29T10:16:03.529Z,70.10
2023-03-29T10:18:32.224Z,71.54
2023-03-29T10:21:01.223Z,71.74
2023-03-29T10:23:33.278Z,71.87
2023-03-29T10:26:04.634Z,71.89
2023-03-29T10:28:34.089Z,70.56
2023-03-29T10:31:04.002Z,71.37
2023-03-29T10:33:34.925Z,72.60
2023-03-29T10:36:05.934Z,71.44
2023-03-29T10:38:37.241Z,72.31
2023-03-29T10:41:09.958Z,71.84
2023-03-29T10:43:40.421Z,73.13
2023-03-29T10:46:11.052Z,71.37
2023-03-29T10:48:39.055Z,72.73
2023-03-29T10:51:07.620Z,73.31
2023-03-29T10:53:37.630Z,73.02
2023-03-29T10:56:25.564Z,75.04
2023-03-29T10:59:18.282Z,74.33
2023-03-29T11:01:57.021Z,75.45
2023-03-29T11:04:37.636Z,76.73
2023-03-29T11:07:23.246Z,75.27
2023-03-29T11:09:58.678Z,74.66
2023-03-29T11:12:35.614Z,74.75
2023-03-29T11:15:20.009Z,73.46
2023-03-29T11:18:00.198Z,74.15
2023-03-29T11:20:39.079Z,72.45
2023-03-29T11:23:24.026Z,71.21
2023-03-29T11:26:02.375Z,71.59
2023-03-29T11:28:37.684Z,70.75
2023-03-29T11:31:17.360Z,71.01
2023-03-29T11:33:57.022Z,71.90
2023-03-29T11:36:33.699Z,71.43
2023-03-29T11:39:09.487Z,71.28
2023-03-29T11:41:41.314Z,69.90
2023-03-29T11:44:18.348Z,70.09
2023-03-29T11:46:49.528Z,69.12
2023-03-29T11:49:22.059Z,67.80
2023-03-29T11:51:55.591Z,71.34
2023-03-29T11:54:28.817Z,69.46
2023-03-29T11:57:01.698Z,70.05
2023-03-29T11:59:35.763Z,71.20
2023-03-29T12:02:12.247Z,69.93
2023-03-29T12:04:44.554Z,70.22
2023-03-29T12:07:18.366Z,70.38
2023-03-29T12:09:50.571Z,69.68
2023-03-29T12:12:25.052Z,69.56
2023-03-29T12:15:03.752Z,67.91
2023-03-29T12:17:35.363Z,69.67
2023-03-29T12:20:12.377Z,69.99
2023-03-29T12:22:41.085Z,68.55
2023-03-29T12:25:18.822Z,70.80
2023-03-29T12:27:56.154Z,70.24
2023-03-29T12:30:50.700Z,70.21
2023-03-29T12:33:33.479Z,66.79
2023-03-29T12:36:18.836Z,69.59
2023-03-29T12:38:48.195Z,70.88
2023-03-29T12:41:20.002Z,69.41
2023-03-29T12:43:48.184Z,70.00
2023-03-29T12:46:20.173Z,69.74
2023-03-29T12:48:50.689Z,68.64
2023-03-29T12:51:20.506Z,68.13
2023-03-29T12:53:51.513Z,68.26
2023-03-29T12:56:21.969Z,69.67
2023-03-29T12:59:06.640Z,70.08
2023-03-29T13:01:37.903Z,72.61
2023-03-29T13:04:20.410Z,71.39
2023-03-29T13:07:03.920Z,72.31
2023-03-29T13:09:35.618Z,71.29
2023-03-29T13:12:10.176Z,69.34
2023-03-29T13:14:43.671Z,70.33
2023-03-29T13:17:28.661Z,72.78
2023-03-29T13:20:19.693Z,72.14
2023-03-29T13:22:58.000Z,72.60
2023-03-29T13:25:42.067Z,74.06
2023-03-29T13:28:19.772Z,73.08
2023-03-29T13:30:59.335Z,71.86
2023-03-29T13:33:55.352Z,71.73
2023-03-29T13:36:36.359Z,72.81
2023-03-29T13:39:07.854Z,71.48
2023-03-29T13:41:49.154Z,70.42
2023-03-29T13:44:27.853Z,71.40
2023-03-29T13:47:17.418Z,71.66
2023-03-29T13:49:53.492Z,71.72
2023-03-29T13:52:27.249Z,70.44
2023-03-29T13:55:01.127Z,72.51
2023-03-29T13:57:36.094Z,71.11
2023-03-29T14:00:11.744Z,72.24
2023-03-29T14:02:49.187Z,72.48
2023-03-29T14:05:22.650Z,73.35
2023-03-29T14:07:52.682Z,73.19
2023-03-29T14:10:25.593Z,71.62
2023-03-29T14:12:54.091Z,71.22
2023-03-29T14:15:28.522Z,71.96
2023-03-29T14:18:00.324Z,72.24
2023-03-29T14:20:32.366Z,71.96
2023-03-29T14:23:00.127Z,72.08
2023-03-29T14:25:30.374Z,72.68
2023-03-29T14:27:58.144Z,73.05
2023-03-29T14:30:29.074Z,74.30
2023-03-29T14:32:57.360Z,74.00
2023-03-29T14:35:33.207Z,73.40
2023-03-29T14:38:03.592Z,74.60
2023-03-29T14:40:32.591Z,75.01
2023-03-29T14:43:05.322Z,74.81
2023-03-29T14:45:33.294Z,75.30
2023-03-29T14:48:01.671Z,74.21
2023-03-29T14:50:32.361Z,74.08
2023-03-29T14:53:01.828Z,75.09
2023-03-29T14:55:30.939Z,76.25
2023-03-29T14:58:00.132Z,74.24
2023-03-29T15:00:30.225Z,74.69
2023-03-29T15:03:00.536Z,74.13
2023-03-29T15:05:38.684Z,75.20
2023-03-29T15:08:09.854Z,75.32
2023-03-29T15:10:39.079Z,74.10
2023-03-29T15:13:09.365Z,75.98
2023-03-29T15:15:39.104Z,76.41
2023-03-29T15:18:09.051Z,75.14
2023-03-29T15:20:40.692Z,74.87
2023-03-29T15:23:23.357Z,74.25
2023-03-29T15:25:55.314Z,73.65
2023-03-29T15:28:28.629Z,72.62
2023-03-29T15:33:35.702Z,73.70
2023-03-29T15:36:07.171Z,72.25
2023-03-29T15:38:43.304Z,72.73
2023-03-29T15:41:13.368Z,73.45
2023-03-29T15:43:41.283Z,74.98
2023-03-29T15:46:09.395Z,75.79
2023-03-29T15:48:37.388Z,75.39
2023-03-29T15:51:07.499Z,75.22
2023-03-29T15:53:36.240Z,74.46
2023-03-29T15:56:08.032Z,73.33
2023-03-29T15:58:36.885Z,72.76
2023-03-29T16:01:13.084Z,73.29
2023-03-29T16:03:41.622Z,73.84
2023-03-29T16:06:13.177Z,73.81
2023-03-29T16:08:41.834Z,73.23
2023-03-29T16:11:09.800Z,73.68
2023-03-29T16:13:37.484Z,73.88
2023-03-29T16:16:05.933Z,73.72
2023-03-29T16:18:33.816Z,74.19
2023-03-29T16:21:01.886Z,74.39
2023-03-29T16:23:30.958Z,73.98
2023-03-29T16:25:59.242Z,74.54
2023-03-29T16:28:27.105Z,74.62
2023-03-29T16:30:54.933Z,75.81
2023-03-29T16:33:23.018Z,77.63
2023-03-29T16:35:51.093Z,79.04
2023-03-29T16:38:18.822Z,77.41
2023-03-29T16:40:47.951Z,76.28
2023-03-29T16:43:17.058Z,75.74
2023-03-29T16:45:44.883Z,76.23
2023-03-29T16:48:14.378Z,77.07
2023-03-29T16:50:42.171Z,78.13
2023-03-29T16:53:10.343Z,76.81
2023-03-29T16:55:39.342Z,78.29
2023-03-29T16:58:08.529Z,78.21
2023-03-29T17:00:36.674Z,77.52
2023-03-29T17:03:04.566Z,77.04
2023-03-29T17:05:33.751Z,77.36
2023-03-29T17:08:02.209Z,76.85
2023-03-29T17:10:29.990Z,77.33
2023-03-29T17:12:57.848Z,78.25
2023-03-29T17:15:26.973Z,78.76
2023-03-29T17:17:54.801Z,78.13
2023-03-29T17:20:22.534Z,77.09
2023-03-29T17:22:52.170Z,76.85
2023-03-29T17:25:19.998Z,76.86
2023-03-29T17:27:47.819Z,77.39
2023-03-29T17:30:16.607Z,76.76
2023-03-29T17:32:45.875Z,77.14
2023-03-29T17:35:14.296Z,77.84
2023-03-29T17:37:42.981Z,77.00
2023-03-29T17:40:13.766Z,77.92
2023-03-29T17:42:41.743Z,77.74
2023-03-29T17:45:11.282Z,77.90
2023-03-29T17:47:39.157Z,77.25
2023-03-29T17:50:11.181Z,77.10
2023-03-29T17:52:40.372Z,79.10
2023-03-29T17:55:11.231Z,80.36
2023-03-29T17:57:39.343Z,81.38
2023-03-29T18:00:10.620Z,80.04
2023-03-29T18:02:38.511Z,78.78
2023-03-29T18:05:09.443Z,79.39
2023-03-29T18:07:37.621Z,79.32
2023-03-29T18:10:06.336Z,77.96
2023-03-29T18:12:34.103Z,78.19
2023-03-29T18:15:02.462Z,80.27
2023-03-29T18:17:31.283Z,80.42
2023-03-29T18:19:59.192Z,80.19
2023-03-29T18:22:28.631Z,80.35
2023-03-29T18:24:56.400Z,81.21
2023-03-29T18:27:25.374Z,80.88
2023-03-29T18:29:55.160Z,80.68
2023-03-29T18:32:23.212Z,80.11
2023-03-29T18:34:50.970Z,81.08
2023-03-29T18:37:18.642Z,80.09
2023-03-29T18:39:48.041Z,79.54
2023-03-29T18:42:15.851Z,79.55
2023-03-29T18:44:43.657Z,81.26
2023-03-29T18:47:11.639Z,81.57
2023-03-29T18:49:40.670Z,81.61
2023-03-29T18:52:09.099Z,80.86
2023-03-29T18:54:37.004Z,80.97
2023-03-29T18:57:06.375Z,82.25
2023-03-29T18:59:35.869Z,82.21
2023-03-29T19:02:03.741Z,81.41
2023-03-29T19:04:31.701Z,81.81
2023-03-29T19:07:01.377Z,82.50
2023-03-29T19:09:29.388Z,83.35
2023-03-29T19:11:57.212Z,84.11
2023-03-29T19:14:26.357Z,83.34
2023-03-29T19:16:54.430Z,82.84
2023-03-29T19:19:23.869Z,84.48
2023-03-29T19:21:52.811Z,85.42
2023-03-29T19:24:20.842Z,86.60
2023-03-29T19:26:50.093Z,85.57
2023-03-29T19:29:17.862Z,86.42
2023-03-29T19:31:47.261Z,84.85
2023-03-29T19:34:15.944Z,84.52
2023-03-29T19:36:43.614Z,83.91
2023-03-29T19:39:11.383Z,84.71
2023-03-29T19:41:41.357Z,85.71
2023-03-29T19:44:10.034Z,86.44
2023-03-29T19:46:37.859Z,86.98
2023-03-29T19:49:08.400Z,87.00
2023-03-29T19:51:36.278Z,86.61
2023-03-29T19:54:05.157Z,86.42
2023-03-29T19:56:33.099Z,85.86
2023-03-29T19:59:00.851Z,86.08
2023-03-29T20:01:32.196Z,85.35
2023-03-29T20:04:00.177Z,87.08
2023-03-29T20:06:29.360Z,86.74
2023-03-29T20:08:57.699Z,85.96
2023-03-29T20:11:25.637Z,85.82
2023-03-29T20:13:53.353Z,86.73
2023-03-29T20:16:24.322Z,87.77
2023-03-29T20:18:53.988Z,86.26
2023-03-29T20:21:21.778Z,87.07
2023-03-29T20:23:51.352Z,88.71
2023-03-29T20:26:19.051Z,87.89
2023-03-29T20:28:47.233Z,88.12
2023-03-29T20:31:15.162Z,87.94
2023-03-29T20:33:44.451Z,88.39
2023-03-29T20:36:12.443Z,86.33
2023-03-29T20:38:40.525Z,86.93
2023-03-29T20:41:10.835Z,87.58
2023-03-29T20:43:38.634Z,88.94
2023-03-29T20:46:14.322Z,88.20
2023-03-29T20:48:52.976Z,86.92
2023-03-29T20:51:21.556Z,86.46
2023-03-29T20:53:50.666Z,86.46
2023-03-29T20:56:20.829Z,86.85
2023-03-29T20:58:48.491Z,87.67
2023-03-29T21:01:16.218Z,86.60
2023-03-29T21:03:44.005Z,86.51
2023-03-29T21:06:14.033Z,85.67
2023-03-29T21:08:42.580Z,85.33
2023-03-29T21:11:13.026Z,86.73
2023-03-29T21:13:42.125Z,87.83
2023-03-29T21:16:10.725Z,87.71
2023-03-29T21:18:39.087Z,87.48
2023-03-29T21:21:07.994Z,87.53
2023-03-29T21:23:36.329Z,89.38
2023-03-29T21:26:04.994Z,88.48
2023-03-29T21:28:32.735Z,90.16
2023-03-29T21:31:05.217Z,89.25
2023-03-29T21:33:33.316Z,89.19
2023-03-29T21:36:02.035Z,89.78
2023-03-29T21:38:30.002Z,90.03
2023-03-29T21:40:58.403Z,91.07
2023-03-29T21:43:26.384Z,93.21
2023-03-29T21:45:54.131Z,93.32
2023-03-29T21:48:23.246Z,92.57
2023-03-29T21:50:51.156Z,93.67
2023-03-29T21:53:19.053Z,93.69
2023-03-29T21:55:49.133Z,91.92
2023-03-29T21:58:17.047Z,92.75
2023-03-29T22:00:44.896Z,92.73
2023-03-29T22:03:13.211Z,92.92
2023-03-29T22:09:28.965Z,96.32
2023-03-29T22:11:56.904Z,94.56
2023-03-29T22:14:24.646Z,94.84
2023-03-29T22:16:52.530Z,95.14
2023-03-29T22:19:20.415Z,93.85
2023-03-29T22:21:48.656Z,93.32
2023-03-29T22:24:17.362Z,93.44
2023-03-29T22:26:46.433Z,94.04
2023-03-29T22:29:14.118Z,93.77
2023-03-29T22:31:41.977Z,94.40
2023-03-29T22:34:09.949Z,93.95
2023-03-29T22:36:37.887Z,94.91
2023-03-29T22:39:06.516Z,94.95
2023-03-29T22:41:34.210Z,95.34
2023-03-29T22:44:03.540Z,95.16
2023-03-29T22:46:31.635Z,95.50
2023-03-29T22:48:59.443Z,95.08
2023-03-29T22:51:27.266Z,94.77
2023-03-29T22:53:55.028Z,95.38
2023-03-29T22:56:23.217Z,94.47
2023-03-29T22:58:51.005Z,95.42
2023-03-29T23:01:20.152Z,93.84
2023-03-29T23:03:47.860Z,94.58
2023-03-29T23:06:15.532Z,94.99
2023-03-29T23:08:43.220Z,94.81
2023-03-29T23:11:11.507Z,94.24
2023-03-29T23:13:39.989Z,95.78
2023-03-29T23:16:08.446Z,96.07
2023-03-29T23:18:37.960Z,94.57
2023-03-29T23:21:07.556Z,93.52
2023-03-29T23:23:36.151Z,94.08
2023-03-29T23:26:03.982Z,95.37
2023-03-29T23:28:34.285Z,93.45
2023-03-29T23:31:04.572Z,94.44
2023-03-29T23:33:35.061Z,94.25
2023-03-29T23:36:07.772Z,94.79
2023-03-29T23:38:37.523Z,95.09
2023-03-29T23:41:08.404Z,94.60
2023-03-29T23:43:37.573Z,93.99
2023-03-29T23:46:07.636Z,93.30
2023-03-29T23:48:35.782Z,94.74
2023-03-29T23:51:07.745Z,93.49
2023-03-29T23:53:35.520Z,94.43
2023-03-29T23:56:05.752Z,96.12
2023-03-29T23:58:34.946Z,93.96
